Time;durP1;ratioP1;P1;durP2;ratioP2;P2;SDS_P1;SDS_P2;PMS_P1;PMS_P2;Temp;Humidity;BMP_temperature;BMP_pressure;BME280_temperature;BME280_humidity;BME280_pressure;Samples;Min_cycle;Max_cycle;Signal;HPM_P1;HPM_P2
2023/12/08 00:01:00;;;;;;;15.53;7.17;;;;;;;9.29;52.30;100807.44;5000634;28;20129;-71
2023/12/08 00:03:25;;;;;;;15.07;6.67;;;;;;;8.69;53.40;100799.00;5009062;28;20084;-72
2023/12/08 00:05:51;;;;;;;18.63;7.93;;;;;;;8.89;53.17;100786.75;4997634;28;20041;-72
2023/12/08 00:08:16;;;;;;;17.13;6.97;;;;;;;9.02;52.15;100790.16;4991498;28;20041;-72
2023/12/08 00:10:41;;;;;;;19.10;8.43;;;;;;;9.16;52.22;100771.84;4998530;28;20026;-71
2023/12/08 00:13:07;;;;;;;14.23;7.03;;;;;;;8.96;53.06;100765.00;5011891;28;20117;-72
2023/12/08 00:15:32;;;;;;;18.27;8.57;;;;;;;8.77;53.07;100768.56;5011378;28;20429;-71
2023/12/08 00:17:58;;;;;;;18.00;7.77;;;;;;;9.64;52.01;100762.00;5011168;28;20025;-71
2023/12/08 00:20:23;;;;;;;15.80;6.83;;;;;;;8.49;54.15;100753.88;5004423;28;20130;-71
2023/12/08 00:22:50;;;;;;;16.90;7.83;;;;;;;9.13;53.51;100740.59;5006013;28;20026;-72
2023/12/08 00:25:16;;;;;;;15.73;7.20;;;;;;;8.68;54.61;100737.31;5011252;28;20026;-72
2023/12/08 00:27:41;;;;;;;16.93;7.17;;;;;;;7.62;56.44;100753.06;5007997;28;20022;-72
2023/12/08 00:30:07;;;;;;;21.63;7.43;;;;;;;8.43;55.79;100735.59;4995664;28;20045;-72
2023/12/08 00:32:33;;;;;;;17.77;8.37;;;;;;;9.00;54.63;100725.00;5011663;28;20080;-72
2023/12/08 00:34:58;;;;;;;25.20;9.33;;;;;;;9.34;53.80;100727.41;5012017;28;20539;-72
2023/12/08 00:37:25;;;;;;;17.47;7.63;;;;;;;8.40;55.92;100735.63;4996772;28;20019;-72
2023/12/08 00:39:50;;;;;;;17.53;7.40;;;;;;;8.63;54.45;100722.56;5005372;28;20018;-72
2023/12/08 00:42:15;;;;;;;18.40;8.67;;;;;;;8.23;55.91;100733.06;5006620;28;20068;-72
2023/12/08 00:44:41;;;;;;;20.13;8.60;;;;;;;7.97;57.24;100733.97;5010840;28;20022;-72
2023/12/08 00:47:06;;;;;;;20.90;8.60;;;;;;;8.08;56.84;100735.72;4999437;28;20034;-72
2023/12/08 00:49:32;;;;;;;22.03;9.10;;;;;;;8.63;55.16;100735.59;4993036;28;20022;-72
2023/12/08 00:51:57;;;;;;;19.43;7.73;;;;;;;8.89;54.29;100726.81;4996785;28;20459;-72
2023/12/08 00:54:22;;;;;;;17.67;8.73;;;;;;;8.23;56.82;100740.88;4992768;28;20056;-72
2023/12/08 00:56:48;;;;;;;21.03;8.30;;;;;;;8.79;55.04;100735.53;5000003;28;20044;-72
2023/12/08 00:59:13;;;;;;;20.73;9.53;;;;;;;8.18;56.74;100758.25;5000105;28;20023;-73
2023/12/08 01:01:39;;;;;;;13.40;5.73;;;;;;;7.94;56.35;100754.78;5003668;28;20025;-72
2023/12/08 01:04:04;;;;;;;18.47;7.73;;;;;;;7.84;57.53;100740.03;4994016;28;20189;-72
2023/12/08 01:06:30;;;;;;;19.80;9.87;;;;;;;7.92;57.25;100743.50;4991566;28;20029;-71
2023/12/08 01:08:55;;;;;;;16.97;7.80;;;;;;;8.62;55.44;100728.63;5006298;28;20057;-71
2023/12/08 01:11:20;;;;;;;22.80;11.07;;;;;;;9.21;54.39;100733.56;5006429;28;20058;-72
2023/12/08 01:13:47;;;;;;;20.47;10.90;;;;;;;9.05;54.50;100729.31;5004635;28;20045;-71
2023/12/08 01:16:12;;;;;;;21.20;10.13;;;;;;;8.69;55.93;100734.69;5009470;28;20091;-71
2023/12/08 01:18:37;;;;;;;23.03;9.17;;;;;;;8.66;55.21;100722.53;5005732;28;20030;-72
2023/12/08 01:21:03;;;;;;;22.70;8.83;;;;;;;8.73;54.79;100725.13;4997543;28;20426;-71
2023/12/08 01:23:28;;;;;;;25.30;10.63;;;;;;;8.57;55.65;100724.31;4994436;28;20030;-71
2023/12/08 01:25:53;;;;;;;24.43;9.47;;;;;;;8.69;55.36;100720.81;5005846;28;20485;-71
2023/12/08 01:28:19;;;;;;;19.50;8.67;;;;;;;8.72;55.23;100716.44;5003031;28;20497;-71
2023/12/08 01:30:45;;;;;;;22.17;9.50;;;;;;;9.24;54.19;100715.28;4991389;28;20088;-72
2023/12/08 01:33:10;;;;;;;25.90;9.17;;;;;;;8.40;56.58;100706.13;5006479;28;20057;-72
2023/12/08 01:35:35;;;;;;;15.83;8.57;;;;;;;9.09;54.87;100702.34;5003629;28;20060;-72
2023/12/08 01:38:01;;;;;;;1.70;1.23;;;;;;;9.34;54.90;100714.38;5008569;28;20075;-72
2023/12/08 01:40:26;;;;;;;0.00;0.00;;;;;;;8.94;56.25;100709.41;4996428;28;20034;-72
2023/12/08 01:42:52;;;;;;;0.00;0.00;;;;;;;8.09;58.67;100724.41;4993662;28;20029;-72
2023/12/08 01:45:17;;;;;;;0.10;0.10;;;;;;;9.06;56.00;100712.81;4990280;28;20033;-72
2023/12/08 01:47:43;;;;;;;0.17;0.17;;;;;;;8.78;56.25;100715.56;5001635;28;20061;-72
2023/12/08 01:50:11;;;;;;;8.40;5.30;;;;;;;8.87;56.84;100707.69;5008939;28;20113;-72
2023/12/08 01:52:36;;;;;;;1.03;1.03;;;;;;;8.32;58.65;100714.81;4995547;28;20022;-72
2023/12/08 01:55:02;;;;;;;0.00;0.00;;;;;;;8.20;58.16;100709.66;5006820;28;20049;-72
2023/12/08 01:57:28;;;;;;;1.23;1.20;;;;;;;8.59;58.34;100705.19;4994717;28;20136;-72
2023/12/08 01:59:55;;;;;;;0.47;0.47;;;;;;;8.65;57.05;100696.50;5010226;28;20164;-72
2023/12/08 02:02:20;;;;;;;2.30;1.37;;;;;;;8.54;57.49;100693.94;4994156;28;20033;-73
2023/12/08 02:04:48;;;;;;;0.10;0.10;;;;;;;8.22;59.32;100692.28;5010206;28;20050;-72
2023/12/08 02:07:14;;;;;;;0.13;0.13;;;;;;;8.03;60.58;100690.59;5007113;28;20030;-72
2023/12/08 02:09:40;;;;;;;2.53;0.73;;;;;;;8.02;60.46;100679.28;5008183;28;20068;-72
2023/12/08 02:12:05;;;;;;;0.10;0.10;;;;;;;8.29;59.23;100661.88;4997526;28;20053;-72
2023/12/08 02:14:31;;;;;;;0.20;0.20;;;;;;;8.36;59.12;100657.50;5006211;28;20077;-72
2023/12/08 02:17:04;;;;;;;0.00;0.00;;;;;;;8.44;59.59;100645.31;4994882;28;20058;-72
2023/12/08 02:19:30;;;;;;;;;;;;;;;9.41;57.58;100633.44;4994856;28;20034;-72
2023/12/08 02:21:56;;;;;;;0.10;0.10;;;;;;;7.81;60.58;100638.56;4993267;28;20283;-72
2023/12/08 02:24:21;;;;;;;2.23;2.13;;;;;;;8.13;59.97;100622.88;4994820;28;20031;-72
2023/12/08 02:26:48;;;;;;;0.20;0.20;;;;;;;8.12;60.63;100612.47;4992771;28;20444;-73
2023/12/08 02:29:14;;;;;;;1.20;0.97;;;;;;;8.64;58.18;100606.16;4993266;28;20026;-72
2023/12/08 02:32:07;;;;;;;0.03;0.03;;;;;;;7.88;62.66;100624.66;5003216;28;20025;-72
2023/12/08 02:34:33;;;;;;;0.22;0.22;;;;;;;8.12;60.87;100630.69;4999259;28;20034;-73
2023/12/08 02:37:02;;;;;;;0.50;0.50;;;;;;;8.44;59.78;100629.69;4990396;28;20660;-72
2023/12/08 02:39:29;;;;;;;0.00;0.00;;;;;;;8.40;59.45;100638.41;5007998;28;20045;-73
2023/12/08 02:41:54;;;;;;;0.10;0.10;;;;;;;8.70;59.01;100632.19;4996875;28;20058;-73
2023/12/08 02:44:19;;;;;;;0.10;0.10;;;;;;;8.17;59.78;100641.06;5004451;28;20295;-72
2023/12/08 02:46:46;;;;;;;1.77;1.53;;;;;;;8.60;59.83;100641.81;5009216;28;20061;-72
2023/12/08 02:49:11;;;;;;;0.47;0.47;;;;;;;8.63;60.01;100647.00;5010987;28;20482;-72
2023/12/08 02:51:37;;;;;;;0.20;0.20;;;;;;;8.71;59.88;100670.44;4999304;28;20032;-73
2023/12/08 02:54:02;;;;;;;0.40;0.40;;;;;;;8.75;59.20;100669.53;5003332;28;20409;-72
2023/12/08 02:56:27;;;;;;;0.20;0.20;;;;;;;9.16;57.08;100677.97;5000166;28;20034;-72
2023/12/08 02:58:53;;;;;;;0.37;0.23;;;;;;;9.46;57.20;100679.47;4995157;28;20113;-72
2023/12/08 03:01:18;;;;;;;0.20;0.20;;;;;;;9.19;56.20;100671.88;4991959;28;20034;-72
2023/12/08 03:03:43;;;;;;;0.10;0.10;;;;;;;9.22;57.73;100670.13;4998059;28;20470;-72
2023/12/08 03:06:09;;;;;;;0.40;0.40;;;;;;;8.56;59.01;100660.03;4997412;28;20124;-73
2023/12/08 03:08:35;;;;;;;0.10;0.10;;;;;;;9.65;55.54;100655.88;5005893;28;20029;-72
2023/12/08 03:11:01;;;;;;;0.10;0.10;;;;;;;8.66;58.98;100641.75;5007600;28;20033;-72
2023/12/08 03:13:26;;;;;;;1.70;1.10;;;;;;;8.78;59.25;100645.19;5000532;28;20516;-72
2023/12/08 03:15:51;;;;;;;1.80;1.70;;;;;;;8.75;59.70;100639.97;4997337;28;20557;-73
2023/12/08 03:18:17;;;;;;;0.33;0.33;;;;;;;8.39;60.60;100626.22;4996782;28;20108;-73
2023/12/08 03:20:42;;;;;;;0.10;0.10;;;;;;;8.94;59.02;100636.41;4993549;28;20033;-72
2023/12/08 03:23:07;;;;;;;0.27;0.27;;;;;;;9.49;57.23;100626.41;4993598;28;20031;-73
2023/12/08 03:25:33;;;;;;;0.07;0.07;;;;;;;9.04;56.93;100623.28;5000818;28;20030;-73
2023/12/08 03:27:58;;;;;;;0.20;0.20;;;;;;;9.25;56.44;100625.75;5007939;28;20033;-72
2023/12/08 03:30:23;;;;;;;0.00;0.00;;;;;;;8.75;58.97;100613.91;5001040;28;20018;-72
2023/12/08 03:32:49;;;;;;;0.97;0.87;;;;;;;8.54;59.80;100615.78;5004607;28;20038;-73
2023/12/08 03:35:14;;;;;;;0.10;0.10;;;;;;;8.97;58.83;100605.09;5014031;28;20044;-72
2023/12/08 03:37:40;;;;;;;0.00;0.00;;;;;;;8.87;57.87;100605.16;5009920;28;20462;-72
2023/12/08 03:40:06;;;;;;;0.30;0.30;;;;;;;8.71;59.79;100583.53;5004508;28;20475;-73
2023/12/08 03:42:36;;;;;;;2.63;2.40;;;;;;;8.01;63.10;100580.38;5000129;28;20384;-72
2023/12/08 03:45:02;;;;;;;0.10;0.10;;;;;;;8.47;60.51;100567.19;5009308;28;20405;-72
2023/12/08 03:47:27;;;;;;;0.00;0.00;;;;;;;8.68;59.81;100591.38;5013406;28;20030;-72
2023/12/08 03:49:52;;;;;;;1.67;1.57;;;;;;;8.41;61.05;100588.03;5003854;28;20030;-72
2023/12/08 03:52:18;;;;;;;0.67;0.67;;;;;;;9.09;59.09;100583.25;5010983;28;20033;-72
2023/12/08 03:54:43;;;;;;;0.10;0.10;;;;;;;9.34;57.15;100589.16;5009923;28;20384;-73
2023/12/08 03:57:08;;;;;;;0.47;0.47;;;;;;;8.90;58.76;100593.00;5013256;28;20072;-72
2023/12/08 03:59:34;;;;;;;3.30;1.23;;;;;;;9.64;56.65;100602.81;5001553;28;20056;-73
2023/12/08 04:02:02;;;;;;;0.10;0.10;;;;;;;9.42;57.34;100596.91;5004625;28;20057;-72
2023/12/08 04:04:27;;;;;;;0.23;0.23;;;;;;;8.58;59.93;100588.81;5010653;28;20128;-72
2023/12/08 04:06:53;;;;;;;0.10;0.10;;;;;;;9.19;58.14;100594.53;5002248;28;20030;-72
2023/12/08 04:09:18;;;;;;;0.20;0.20;;;;;;;9.10;59.11;100599.78;4999035;28;20080;-73
2023/12/08 04:11:44;;;;;;;0.30;0.30;;;;;;;8.82;58.97;100600.84;5003210;28;20026;-72
2023/12/08 04:14:09;;;;;;;0.20;0.20;;;;;;;9.60;57.09;100598.50;4996254;28;20509;-72
2023/12/08 04:16:34;;;;;;;0.00;0.00;;;;;;;9.30;57.74;100603.09;4996945;28;20378;-73
2023/12/08 04:19:00;;;;;;;1.70;1.33;;;;;;;8.47;59.73;100603.66;5006353;28;20499;-72
2023/12/08 04:21:25;;;;;;;0.00;0.00;;;;;;;8.62;60.14;100595.75;4996523;28;20561;-72
2023/12/08 04:23:51;;;;;;;2.07;0.57;;;;;;;8.86;59.53;100606.94;5003095;28;20037;-72
2023/12/08 04:26:20;;;;;;;24.07;5.10;;;;;;;8.99;58.00;100602.47;5027624;28;20121;-73
2023/12/08 04:28:46;;;;;;;0.90;0.47;;;;;;;8.53;60.84;100588.00;5010248;28;20026;-72
2023/12/08 04:31:11;;;;;;;1.93;1.83;;;;;;;9.12;58.45;100583.25;5000668;28;20027;-71
2023/12/08 04:33:36;;;;;;;0.10;0.10;;;;;;;9.36;58.58;100590.91;4993100;28;20073;-72
2023/12/08 04:36:02;;;;;;;0.10;0.10;;;;;;;9.24;57.92;100592.72;5026781;28;20029;-72
2023/12/08 04:38:27;;;;;;;2.07;0.67;;;;;;;9.21;58.24;100605.78;5008402;28;20033;-72
2023/12/08 04:40:53;;;;;;;0.83;0.50;;;;;;;8.68;60.01;100601.81;4994219;28;20030;-72
2023/12/08 04:43:18;;;;;;;0.00;0.00;;;;;;;9.30;58.47;100602.22;5004023;28;20034;-72
2023/12/08 04:45:44;;;;;;;0.00;0.00;;;;;;;9.43;57.92;100595.19;4995427;28;20053;-72
2023/12/08 04:48:09;;;;;;;0.10;0.10;;;;;;;8.37;61.27;100591.53;4995663;28;20036;-72
2023/12/08 04:50:34;;;;;;;0.53;0.53;;;;;;;8.99;60.55;100585.09;5000881;28;20034;-72
2023/12/08 04:53:00;;;;;;;0.00;0.00;;;;;;;8.43;60.49;100581.06;5007983;28;20065;-72
2023/12/08 04:55:25;;;;;;;0.10;0.10;;;;;;;8.20;62.52;100563.84;5008749;28;20053;-72
2023/12/08 04:57:51;;;;;;;0.00;0.00;;;;;;;8.40;61.91;100571.53;5005781;28;20021;-72
2023/12/08 05:00:17;;;;;;;3.93;1.63;;;;;;;8.56;61.83;100572.34;5011143;28;20034;-72
2023/12/08 05:02:42;;;;;;;0.50;0.50;;;;;;;8.65;60.82;100564.50;5007120;28;20057;-71
2023/12/08 05:05:08;;;;;;;0.83;0.83;;;;;;;8.77;60.43;100560.06;5008474;28;20551;-72
2023/12/08 05:07:33;;;;;;;0.27;0.27;;;;;;;8.80;61.38;100567.84;4999443;28;20026;-72
2023/12/08 05:09:58;;;;;;;0.10;0.10;;;;;;;8.87;60.92;100569.53;4999454;28;20072;-73
2023/12/08 05:12:24;;;;;;;0.10;0.10;;;;;;;9.18;59.87;100571.91;5001932;28;20031;-72
2023/12/08 05:14:49;;;;;;;0.00;0.00;;;;;;;9.51;59.28;100567.28;5017818;28;20122;-72
2023/12/08 05:17:15;;;;;;;1.80;1.70;;;;;;;9.42;59.39;100575.19;5015617;28;20026;-72
2023/12/08 05:19:40;;;;;;;0.30;0.30;;;;;;;9.38;58.74;100573.47;5005167;28;20486;-72
2023/12/08 05:22:05;;;;;;;0.00;0.00;;;;;;;8.95;60.27;100570.34;4999495;28;20284;-72
2023/12/08 05:24:31;;;;;;;0.20;0.20;;;;;;;8.84;60.61;100577.38;5008108;28;20080;-72
2023/12/08 05:26:57;;;;;;;0.37;0.37;;;;;;;8.77;60.53;100570.50;5004895;28;20038;-72
2023/12/08 05:29:22;;;;;;;4.07;1.33;;;;;;;9.30;59.43;100577.03;4991592;28;20547;-72
2023/12/08 05:31:48;;;;;;;0.20;0.20;;;;;;;9.50;59.43;100570.75;4998623;28;20117;-72
2023/12/08 05:34:13;;;;;;;0.10;0.10;;;;;;;9.64;58.24;100566.28;5011438;28;20032;-72
2023/12/08 05:36:39;;;;;;;0.10;0.10;;;;;;;9.80;58.29;100563.50;4999284;28;20060;-72
2023/12/08 05:39:06;;;;;;;0.00;0.00;;;;;;;9.89;56.84;100566.00;5025260;28;20021;-72
2023/12/08 05:41:31;;;;;;;0.20;0.20;;;;;;;9.83;57.35;100566.06;4997954;28;20081;-72
2023/12/08 05:43:56;;;;;;;1.03;1.03;;;;;;;9.36;58.86;100565.66;4996121;28;20029;-72
2023/12/08 05:46:22;;;;;;;0.10;0.10;;;;;;;9.42;58.81;100575.19;4996985;28;20026;-71
2023/12/08 05:48:47;;;;;;;0.00;0.00;;;;;;;9.80;58.71;100561.72;5009339;28;20060;-72
2023/12/08 05:51:13;;;;;;;0.10;0.10;;;;;;;9.99;57.09;100562.38;4998918;28;20084;-72
2023/12/08 05:53:38;;;;;;;0.30;0.30;;;;;;;10.26;56.46;100570.78;5005911;28;20025;-72
2023/12/08 05:56:04;;;;;;;0.10;0.10;;;;;;;9.95;57.34;100571.16;4994396;28;20061;-71
2023/12/08 05:58:29;;;;;;;0.10;0.10;;;;;;;9.64;58.91;100571.50;4999342;28;20033;-72
2023/12/08 06:00:54;;;;;;;0.63;0.63;;;;;;;10.21;56.68;100576.91;5004483;28;20112;-71
2023/12/08 06:03:20;;;;;;;0.20;0.20;;;;;;;9.29;58.99;100585.72;5006064;28;20077;-74
2023/12/08 06:05:45;;;;;;;0.07;0.07;;;;;;;9.63;58.57;100576.69;5015466;28;20112;-74
2023/12/08 06:08:13;;;;;;;0.00;0.00;;;;;;;9.36;60.63;100585.69;4998226;28;20050;-74
2023/12/08 06:10:38;;;;;;;0.10;0.10;;;;;;;9.29;60.61;100585.72;5019071;28;20037;-74
2023/12/08 06:13:03;;;;;;;0.93;0.93;;;;;;;9.56;59.35;100598.53;4993113;28;20034;-73
2023/12/08 06:15:29;;;;;;;0.53;0.53;;;;;;;9.61;59.96;100592.38;4995867;28;20116;-71
2023/12/08 06:17:54;;;;;;;0.23;0.23;;;;;;;9.64;59.01;100594.97;4997539;28;20038;-74
2023/12/08 06:20:21;;;;;;;0.00;0.00;;;;;;;10.17;58.88;100602.22;4993972;28;20038;-71
2023/12/08 06:22:46;;;;;;;1.70;0.67;;;;;;;9.64;59.64;100597.59;4990628;28;20041;-72
2023/12/08 06:25:11;;;;;;;0.10;0.10;;;;;;;9.42;60.55;100596.91;5006464;28;20034;-72
2023/12/08 06:27:37;;;;;;;0.03;0.03;;;;;;;9.54;60.05;100593.31;5001770;28;20118;-71
2023/12/08 06:30:03;;;;;;;0.10;0.10;;;;;;;9.62;60.55;100594.13;4993406;28;20414;-75
2023/12/08 06:32:29;;;;;;;0.10;0.10;;;;;;;9.91;58.81;100594.69;4996669;28;20053;-71
2023/12/08 06:34:55;;;;;;;0.30;0.30;;;;;;;9.53;59.41;100599.41;4995746;28;20465;-72
2023/12/08 06:37:20;;;;;;;1.90;0.53;;;;;;;10.32;58.57;100591.59;5006597;28;20096;-71
2023/12/08 06:39:45;;;;;;;0.10;0.10;;;;;;;9.62;60.23;100604.56;4992742;28;20031;-72
2023/12/08 06:42:11;;;;;;;0.30;0.30;;;;;;;9.68;59.34;100594.06;4998128;28;20532;-72
2023/12/08 06:44:36;;;;;;;0.03;0.03;;;;;;;9.51;60.43;100601.19;4989852;28;20460;-72
2023/12/08 06:47:01;;;;;;;0.70;0.70;;;;;;;9.81;60.54;100596.56;5006493;28;20449;-72
2023/12/08 06:49:27;;;;;;;0.20;0.20;;;;;;;10.26;58.03;100588.19;5007562;28;20034;-72
2023/12/08 06:51:52;;;;;;;0.40;0.40;;;;;;;10.32;57.73;100596.81;4996082;28;20610;-72
2023/12/08 06:54:18;;;;;;;0.50;0.50;;;;;;;10.55;57.08;100600.91;5009749;28;20068;-72
2023/12/08 06:56:43;;;;;;;0.90;0.63;;;;;;;10.16;58.97;100595.28;4998548;28;20030;-72
2023/12/08 06:59:09;;;;;;;0.00;0.00;;;;;;;10.29;58.33;100585.53;4991061;28;20062;-73
2023/12/08 07:01:37;;;;;;;0.07;0.07;;;;;;;10.31;57.92;100595.06;4998636;28;20041;-72
2023/12/08 07:04:06;;;;;;;0.20;0.20;;;;;;;10.25;58.16;100600.41;5007767;28;20041;-73
2023/12/08 07:06:31;;;;;;;0.20;0.20;;;;;;;10.13;58.74;100590.09;5005735;28;20171;-73
2023/12/08 07:08:57;;;;;;;0.57;0.57;;;;;;;10.33;57.71;100582.88;5000098;28;20133;-73
2023/12/08 07:11:22;;;;;;;1.20;1.10;;;;;;;10.30;58.68;100588.16;5005530;28;20026;-73
2023/12/08 07:13:48;;;;;;;0.13;0.13;;;;;;;10.39;58.85;100592.41;5007337;28;20064;-73
2023/12/08 07:16:14;;;;;;;0.00;0.00;;;;;;;10.48;57.99;100596.63;4997628;28;20076;-73
2023/12/08 07:18:40;;;;;;;0.20;0.20;;;;;;;10.46;58.50;100599.28;5007345;28;20097;-73
2023/12/08 07:21:05;;;;;;;0.10;0.10;;;;;;;10.30;59.64;100609.03;5010984;28;20109;-72
2023/12/08 07:23:31;;;;;;;0.27;0.27;;;;;;;10.56;58.31;100612.22;5008854;28;20473;-74
2023/12/08 07:25:56;;;;;;;0.00;0.00;;;;;;;10.19;59.94;100616.13;5005822;28;20033;-72
2023/12/08 07:28:21;;;;;;;0.10;0.10;;;;;;;10.46;58.86;100608.88;4989352;28;20084;-73
2023/12/08 07:30:47;;;;;;;11.80;2.23;;;;;;;10.91;57.58;100611.72;5007288;28;20030;-73
2023/12/08 07:33:12;;;;;;;0.60;0.47;;;;;;;10.55;58.95;100616.59;4988335;28;20026;-73
2023/12/08 07:35:37;;;;;;;0.00;0.00;;;;;;;10.65;58.22;100620.81;4992624;28;20117;-73
2023/12/08 07:38:03;;;;;;;0.00;0.00;;;;;;;10.79;57.64;100617.13;4990204;28;20054;-73
2023/12/08 07:40:29;;;;;;;1.13;0.50;;;;;;;10.49;57.92;100614.06;4989153;28;20026;-73
2023/12/08 07:42:55;;;;;;;0.10;0.10;;;;;;;10.19;60.75;100616.13;5000893;28;20517;-73
2023/12/08 07:45:20;;;;;;;2.10;1.17;;;;;;;10.47;60.56;100608.84;5005643;28;20030;-72
2023/12/08 07:47:45;;;;;;;0.40;0.40;;;;;;;10.63;58.62;100613.88;5001003;28;20505;-73
2023/12/08 07:50:11;;;;;;;1.50;1.10;;;;;;;10.47;58.72;100621.06;4998616;28;20045;-73
2023/12/08 07:52:38;;;;;;;1.40;1.03;;;;;;;10.54;59.44;100625.31;5001138;28;20038;-73
2023/12/08 07:55:05;;;;;;;0.10;0.10;;;;;;;10.69;58.78;100626.88;5001511;28;20033;-73
2023/12/08 07:57:30;;;;;;;0.10;0.10;;;;;;;10.72;58.72;100629.44;4993019;28;20102;-73
2023/12/08 07:59:56;;;;;;;0.00;0.00;;;;;;;10.80;57.82;100630.19;5024114;28;20116;-72
2023/12/08 08:02:21;;;;;;;1.40;1.07;;;;;;;10.32;60.54;100641.22;4999787;28;20034;-73
2023/12/08 08:04:47;;;;;;;0.00;0.00;;;;;;;10.60;59.45;100640.91;5005860;28;20080;-73
2023/12/08 08:07:12;;;;;;;6.43;2.90;;;;;;;10.83;59.32;100645.81;5013490;28;20030;-72
2023/12/08 08:09:37;;;;;;;0.17;0.17;;;;;;;11.19;57.71;100635.69;5010228;28;20025;-72
2023/12/08 08:12:03;;;;;;;2.10;1.73;;;;;;;10.94;58.77;100637.81;5008341;28;20029;-73
2023/12/08 08:14:28;;;;;;;1.80;1.70;;;;;;;10.66;60.71;100642.56;5008788;28;20469;-73
2023/12/08 08:16:54;;;;;;;0.10;0.10;;;;;;;11.27;57.99;100646.06;5005617;28;20037;-73
2023/12/08 08:19:19;;;;;;;0.83;0.83;;;;;;;10.96;58.11;100651.75;4989004;28;20297;-73
2023/12/08 08:21:45;;;;;;;0.77;0.77;;;;;;;10.73;60.22;100653.81;4990076;28;20038;-73
2023/12/08 08:24:10;;;;;;;3.00;1.80;;;;;;;11.30;58.37;100659.06;5009935;28;20034;-73
2023/12/08 08:26:35;;;;;;;0.10;0.10;;;;;;;11.87;56.55;100652.88;5017011;28;20109;-72
2023/12/08 08:29:01;;;;;;;1.10;0.93;;;;;;;11.85;56.24;100651.19;5006169;28;20050;-73
2023/12/08 08:31:26;;;;;;;0.00;0.00;;;;;;;11.45;57.44;100654.50;5011959;28;20025;-73
2023/12/08 08:33:52;;;;;;;3.20;2.47;;;;;;;12.09;55.66;100646.41;4997837;28;20030;-73
2023/12/08 08:36:17;;;;;;;0.10;0.10;;;;;;;11.41;57.08;100658.91;4992328;28;20502;-73
2023/12/08 08:38:43;;;;;;;0.60;0.60;;;;;;;11.40;58.32;100669.41;5005582;28;20473;-73
2023/12/08 08:41:08;;;;;;;1.00;0.93;;;;;;;11.75;57.19;100668.81;5003235;28;20018;-73
2023/12/08 08:43:34;;;;;;;0.37;0.37;;;;;;;11.62;58.22;100667.28;4999262;28;20356;-73
2023/12/08 08:46:02;;;;;;;0.73;0.73;;;;;;;12.34;55.80;100671.25;5002007;28;20034;-73
2023/12/08 08:48:27;;;;;;;0.93;0.93;;;;;;;12.68;54.20;100667.94;5012229;28;20064;-73
2023/12/08 08:50:53;;;;;;;3.63;0.77;;;;;;;12.72;54.43;100680.09;5004637;28;20096;-73
2023/12/08 08:53:18;;;;;;;1.10;1.07;;;;;;;12.53;54.95;100679.59;5004800;28;20033;-73
2023/12/08 08:55:44;;;;;;;3.90;1.47;;;;;;;12.47;55.09;100676.25;5008438;28;20744;-73
2023/12/08 08:58:10;;;;;;;0.10;0.10;;;;;;;11.74;57.67;100681.94;5003667;28;20122;-73
2023/12/08 09:00:35;;;;;;;0.37;0.37;;;;;;;11.61;57.89;100676.91;5004065;28;20153;-73
2023/12/08 09:03:01;;;;;;;0.10;0.10;;;;;;;11.48;58.90;100680.63;4991674;28;20022;-73
2023/12/08 09:05:27;;;;;;;8.20;7.47;;;;;;;11.41;60.92;100679.84;5011457;28;20049;-73
2023/12/08 09:07:53;;;;;;;1.60;1.50;;;;;;;11.63;59.50;100680.34;5009713;28;20493;-73
2023/12/08 09:10:19;;;;;;;2.23;1.53;;;;;;;11.50;60.45;100671.00;5005341;28;20060;-73
2023/12/08 09:12:44;;;;;;;0.10;0.10;;;;;;;10.21;66.14;100682.28;5028013;28;20532;-73
2023/12/08 09:15:11;;;;;;;0.30;0.30;;;;;;;10.67;65.81;100680.91;4994194;28;20121;-73
2023/12/08 09:17:37;;;;;;;0.10;0.10;;;;;;;11.27;65.43;100677.44;4991409;28;20041;-73
2023/12/08 09:20:05;;;;;;;5.13;1.73;;;;;;;11.20;63.19;100687.13;5007443;28;20390;-73
2023/12/08 09:22:30;;;;;;;0.90;0.83;;;;;;;10.72;66.92;100697.41;5011294;28;20029;-73
2023/12/08 09:24:55;;;;;;;0.30;0.30;;;;;;;12.06;61.27;100694.47;5009665;28;20022;-73
2023/12/08 09:27:21;;;;;;;0.10;0.10;;;;;;;12.00;60.96;100695.47;5010211;28;20156;-73
2023/12/08 09:29:46;;;;;;;1.03;0.97;;;;;;;11.27;63.55;100698.38;4999451;28;20041;-73
2023/12/08 09:32:11;;;;;;;2.77;1.23;;;;;;;11.89;61.20;100697.38;4989709;28;20034;-73
2023/12/08 09:34:38;;;;;;;0.10;0.10;;;;;;;12.13;60.10;100700.47;5002181;28;20185;-73
2023/12/08 09:37:04;;;;;;;0.00;0.00;;;;;;;11.94;60.71;100694.66;5006322;28;20025;-73
2023/12/08 09:39:29;;;;;;;0.10;0.10;;;;;;;12.12;61.24;100698.78;4998849;28;20022;-73
2023/12/08 09:42:02;;;;;;;0.10;0.10;;;;;;;12.47;60.89;100694.59;5012390;28;20034;-73
2023/12/08 09:44:28;;;;;;;1.43;1.33;;;;;;;12.28;61.82;100709.81;5010711;28;20026;-73
2023/12/08 09:46:56;;;;;;;1.30;0.30;;;;;;;12.61;60.06;100707.41;4997765;28;20448;-73
2023/12/08 09:49:29;;;;;;;5.53;2.00;;;;;;;13.08;58.45;100705.56;4966972;28;20038;-73
2023/12/08 09:51:55;;;;;;;0.40;0.40;;;;;;;13.09;58.31;100704.63;5010713;28;20494;-73
2023/12/08 09:54:22;;;;;;;3.90;1.37;;;;;;;13.71;56.58;100709.34;5000820;28;20022;-73
2023/12/08 09:56:52;;;;;;;0.00;0.00;;;;;;;13.22;58.03;100705.22;5010996;28;20107;-73
2023/12/08 09:59:23;;;;;;;0.30;0.30;;;;;;;12.81;59.99;100712.25;5003399;28;20386;-73
2023/12/08 10:01:48;;;;;;;1.60;1.50;;;;;;;13.11;59.22;100708.09;5009821;28;20030;-73
2023/12/08 10:04:13;;;;;;;0.10;0.10;;;;;;;12.94;60.44;100716.34;5003388;28;20459;-73
2023/12/08 10:06:39;;;;;;;0.63;0.63;;;;;;;13.51;58.85;100716.84;4994719;28;20038;-72
2023/12/08 10:09:06;;;;;;;0.67;0.67;;;;;;;13.62;58.12;100714.81;5007374;28;20030;-73
2023/12/08 10:11:32;;;;;;;0.70;0.70;;;;;;;12.67;61.22;100718.66;4989973;28;20018;-73
2023/12/08 10:14:00;;;;;;;0.30;0.30;;;;;;;12.49;64.10;100725.13;4991252;28;20019;-73
2023/12/08 10:16:25;;;;;;;0.40;0.40;;;;;;;13.40;60.19;100719.72;5000173;28;20026;-73
2023/12/08 10:18:51;;;;;;;0.60;0.60;;;;;;;13.60;59.55;100715.75;4990803;28;20024;-73
2023/12/08 10:21:18;;;;;;;0.00;0.00;;;;;;;13.52;58.65;100713.31;5008873;28;20030;-73
2023/12/08 10:23:45;;;;;;;0.00;0.00;;;;;;;12.68;63.57;100720.38;5009759;28;20026;-73
2023/12/08 10:26:16;;;;;;;0.07;0.07;;;;;;;12.94;63.77;100711.09;5004012;28;20026;-73
2023/12/08 10:28:42;;;;;;;0.40;0.40;;;;;;;12.58;64.68;100713.59;4993563;28;20023;-73
2023/12/08 10:31:08;;;;;;;0.00;0.00;;;;;;;12.31;65.47;100721.09;5008411;28;20489;-73
2023/12/08 10:33:34;;;;;;;0.20;0.20;;;;;;;13.28;64.09;100705.06;5009588;28;20025;-73
2023/12/08 10:36:00;;;;;;;2.43;1.50;;;;;;;12.83;66.71;100713.06;5011428;28;20037;-73
2023/12/08 10:38:25;;;;;;;1.20;0.87;;;;;;;12.29;67.88;100712.41;5000771;28;20027;-73
2023/12/08 10:40:55;;;;;;;1.60;0.77;;;;;;;13.76;62.10;100703.09;5000944;28;20026;-73
2023/12/08 10:43:25;;;;;;;0.20;0.20;;;;;;;13.18;64.57;100714.06;4999411;28;20036;-73
2023/12/08 10:45:51;;;;;;;6.80;1.50;;;;;;;12.35;67.87;100709.69;5007582;28;20485;-73
2023/12/08 10:48:19;;;;;;;0.00;0.00;;;;;;;13.64;63.35;100707.78;4989307;28;20049;-73
2023/12/08 10:50:46;;;;;;;1.20;1.10;;;;;;;13.48;62.38;100706.44;5007298;28;20026;-73
2023/12/08 10:53:12;;;;;;;8.03;1.27;;;;;;;13.16;64.42;100715.84;5007443;28;20029;-73
2023/12/08 10:55:38;;;;;;;1.03;0.53;;;;;;;13.27;66.07;100716.50;4996273;28;20042;-73
2023/12/08 10:58:05;;;;;;;0.00;0.00;;;;;;;13.34;66.03;100710.19;4989872;28;20049;-73
2023/12/08 11:00:32;;;;;;;0.57;0.57;;;;;;;12.90;67.48;100707.69;5001717;28;20499;-73
2023/12/08 11:02:58;;;;;;;0.60;0.60;;;;;;;13.58;63.41;100710.53;5004873;28;20033;-73
2023/12/08 11:05:29;;;;;;;0.57;0.57;;;;;;;14.04;64.02;100712.00;5004825;28;20112;-73
2023/12/08 11:07:57;;;;;;;0.73;0.73;;;;;;;12.89;67.18;100708.56;5009409;28;20584;-73
2023/12/08 11:10:27;;;;;;;2.10;1.80;;;;;;;13.70;64.87;100718.13;5002587;28;20030;-73
2023/12/08 11:13:06;;;;;;;0.00;0.00;;;;;;;13.56;66.36;100714.97;4989503;28;20505;-73
2023/12/08 11:15:34;;;;;;;0.00;0.00;;;;;;;13.72;65.83;100728.56;4998384;28;20026;-73
2023/12/08 11:18:15;;;;;;;1.00;0.93;;;;;;;14.60;61.81;100726.25;5008514;28;20026;-73
2023/12/08 11:20:41;;;;;;;0.30;0.30;;;;;;;14.49;62.04;100733.59;4993536;28;20022;-73
2023/12/08 11:23:07;;;;;;;0.10;0.10;;;;;;;13.97;63.51;100727.97;5019693;28;20042;-73